createdAt,value
2022-08-11T00:01:24.293Z,6.50
2022-08-11T00:03:56.952Z,7.00
2022-08-11T00:06:27.910Z,6.60
2022-08-11T00:08:57.377Z,6.90
2022-08-11T00:11:53.529Z,7.50
2022-08-11T00:14:36.867Z,8.70
2022-08-11T00:17:08.578Z,7.80
2022-08-11T00:20:12.554Z,7.00
2022-08-11T00:22:29.886Z,7.00
2022-08-11T00:25:02.404Z,6.60
2022-08-11T00:27:35.052Z,5.90
2022-08-11T00:30:06.430Z,6.30
2022-08-11T00:32:37.677Z,7.90
2022-08-11T00:35:52.470Z,8.50
2022-08-11T00:37:56.602Z,7.70
2022-08-11T00:40:39.495Z,7.40
2022-08-11T00:43:20.550Z,5.70
2022-08-11T00:46:02.247Z,6.10
2022-08-11T00:48:38.717Z,6.30
2022-08-11T00:51:17.260Z,5.10
2022-08-11T00:53:53.219Z,4.70
2022-08-11T00:56:47.158Z,4.90
2022-08-11T00:59:35.474Z,5.10
2022-08-11T01:02:10.067Z,4.30
2022-08-11T01:04:38.837Z,5.60
2022-08-11T01:08:01.381Z,4.70
2022-08-11T01:10:37.920Z,4.80
2022-08-11T01:13:17.100Z,5.20
2022-08-11T01:15:57.078Z,4.50
2022-08-11T01:18:31.850Z,5.80
2022-08-11T01:21:15.213Z,4.10
2022-08-11T01:24:31.270Z,5.20
2022-08-11T01:27:50.956Z,4.10
2022-08-11T01:30:47.063Z,5.90
2022-08-11T01:33:54.146Z,5.20
2022-08-11T01:36:36.867Z,4.70
2022-08-11T01:39:42.964Z,4.70
2022-08-11T01:43:05.725Z,4.90
2022-08-11T01:45:55.396Z,5.40
2022-08-11T01:48:45.188Z,5.30
2022-08-11T01:51:41.952Z,5.10
2022-08-11T01:54:25.337Z,5.00
2022-08-11T01:57:28.835Z,4.30
2022-08-11T02:00:12.862Z,4.40
2022-08-11T02:02:58.362Z,4.10
2022-08-11T02:05:48.329Z,4.90
2022-08-11T02:09:26.428Z,4.60
2022-08-11T02:12:02.658Z,3.60
2022-08-11T02:15:04.624Z,4.20
2022-08-11T02:18:08.108Z,5.30
2022-08-11T02:21:15.016Z,4.10
2022-08-11T02:24:05.789Z,5.20
2022-08-11T02:26:50.686Z,5.10
2022-08-11T02:29:26.503Z,4.10
2022-08-11T02:32:39.149Z,4.30
2022-08-11T02:35:29.545Z,5.80
2022-08-11T02:38:35.656Z,5.50
2022-08-11T02:41:47.915Z,6.10
2022-08-11T02:44:37.919Z,5.90
2022-08-11T02:47:15.338Z,4.50
2022-08-11T02:50:21.957Z,4.20
2022-08-11T02:53:06.558Z,4.10
2022-08-11T02:55:58.280Z,4.50
2022-08-11T02:58:41.349Z,4.00
2022-08-11T03:01:19.695Z,6.20
2022-08-11T03:03:55.892Z,3.60
2022-08-11T03:06:37.308Z,3.90
2022-08-11T03:09:24.589Z,4.70
2022-08-11T03:12:21.026Z,5.40
2022-08-11T03:15:31.246Z,5.50
2022-08-11T03:18:35.191Z,5.10
2022-08-11T03:21:25.069Z,5.10
2022-08-11T03:24:23.602Z,5.10
2022-08-11T03:27:11.176Z,4.40
2022-08-11T03:30:22.377Z,4.10
2022-08-11T03:33:45.844Z,5.30
2022-08-11T03:37:15.575Z,8.10
2022-08-11T03:39:36.450Z,4.40
2022-08-11T03:42:22.869Z,4.80
2022-08-11T03:45:10.371Z,5.00
2022-08-11T03:47:56.800Z,6.50
2022-08-11T03:50:54.430Z,5.30
2022-08-11T03:53:50.497Z,5.90
2022-08-11T03:56:52.377Z,5.50
2022-08-11T03:59:58.386Z,5.40
2022-08-11T04:02:52.279Z,6.70
2022-08-11T04:05:58.702Z,5.50
2022-08-11T04:08:42.119Z,4.70
2022-08-11T04:11:35.032Z,7.10
2022-08-11T04:14:34.355Z,4.40
2022-08-11T04:17:27.627Z,4.70
2022-08-11T04:20:14.535Z,6.80
2022-08-11T04:24:36.861Z,5.60
2022-08-11T04:26:34.289Z,5.20
2022-08-11T04:29:09.706Z,4.90
2022-08-11T04:32:00.541Z,4.40
2022-08-11T04:35:10.233Z,5.30
2022-08-11T04:37:54.726Z,4.70
2022-08-11T04:40:37.993Z,8.10
2022-08-11T04:44:05.445Z,5.80
2022-08-11T04:47:01.114Z,6.70
2022-08-11T04:50:00.483Z,5.10
2022-08-11T04:53:22.090Z,6.10
2022-08-11T04:56:28.347Z,5.60
2022-08-11T04:59:26.976Z,5.70
2022-08-11T05:02:36.075Z,5.80
2022-08-11T05:05:30.978Z,7.10
2022-08-11T05:08:21.897Z,7.90
2022-08-11T05:11:16.462Z,7.20
2022-08-11T05:14:08.861Z,6.10
2022-08-11T05:20:06.721Z,5.60
2022-08-11T05:22:53.777Z,9.10
2022-08-11T05:26:45.212Z,8.20
2022-08-11T05:29:19.695Z,6.80
2022-08-11T05:32:15.712Z,6.40
2022-08-11T05:34:54.855Z,6.20
2022-08-11T05:37:34.997Z,7.30
2022-08-11T05:40:30.808Z,6.80
2022-08-11T05:43:20.421Z,6.00
2022-08-11T05:46:18.808Z,7.40
2022-08-11T05:49:06.128Z,9.00
2022-08-11T05:52:05.415Z,9.60
2022-08-11T05:55:05.360Z,6.70
2022-08-11T05:57:50.396Z,7.60
2022-08-11T06:00:21.033Z,5.10
2022-08-11T06:02:51.961Z,5.90
2022-08-11T06:05:43.201Z,6.80
2022-08-11T06:08:14.094Z,6.20
2022-08-11T06:10:43.873Z,7.80
2022-08-11T06:13:17.670Z,5.10
2022-08-11T06:15:50.269Z,5.40
2022-08-11T06:18:19.431Z,5.80
2022-08-11T06:20:54.200Z,6.40
2022-08-11T06:23:25.216Z,6.60
2022-08-11T06:25:59.064Z,7.90
2022-08-11T06:28:36.228Z,6.30
2022-08-11T06:31:33.810Z,9.60
2022-08-11T06:34:02.177Z,6.50
2022-08-11T06:37:05.278Z,9.00
2022-08-11T06:39:42.953Z,9.10
2022-08-11T06:42:17.241Z,8.80
2022-08-11T06:44:58.372Z,8.30
2022-08-11T06:50:14.972Z,7.60
2022-08-11T06:52:43.572Z,10.50
2022-08-11T06:55:57.094Z,8.70
2022-08-11T06:58:23.047Z,8.00
2022-08-11T07:00:56.349Z,8.00
2022-08-11T07:03:26.320Z,8.90
2022-08-11T07:06:01.303Z,10.20
2022-08-11T07:09:03.535Z,7.90
2022-08-11T07:14:46.110Z,7.30
2022-08-11T07:17:27.061Z,10.30
2022-08-11T07:20:17.031Z,6.80
2022-08-11T07:23:10.804Z,5.00
2022-08-11T07:26:01.728Z,8.30
2022-08-11T07:28:51.835Z,6.20
2022-08-11T07:31:30.737Z,3.00
2022-08-11T07:34:25.683Z,7.60
2022-08-11T07:36:58.330Z,3.70
2022-08-11T07:39:29.044Z,4.80
2022-08-11T07:41:59.927Z,4.70
2022-08-11T07:44:34.979Z,5.30
2022-08-11T07:47:22.694Z,4.20
2022-08-11T07:50:12.684Z,7.00
2022-08-11T07:52:41.204Z,3.80
2022-08-11T07:55:19.687Z,3.10
2022-08-11T07:58:15.467Z,2.60
2022-08-11T08:01:21.691Z,4.20
2022-08-11T08:04:10.580Z,5.20
2022-08-11T08:07:01.750Z,3.50
2022-08-11T08:09:52.434Z,3.00
2022-08-11T08:12:43.316Z,1.90
2022-08-11T08:15:31.395Z,2.10
2022-08-11T08:18:09.443Z,2.30
2022-08-11T08:20:51.330Z,2.50
2022-08-11T08:23:35.790Z,5.10
2022-08-11T08:26:26.488Z,1.80
2022-08-11T08:29:16.177Z,3.00
2022-08-11T08:31:45.184Z,1.60
2022-08-11T08:36:48.588Z,1.30
2022-08-11T08:39:21.942Z,4.40
2022-08-11T08:41:57.883Z,2.00
2022-08-11T08:44:38.216Z,2.50
2022-08-11T08:47:15.503Z,4.10
2022-08-11T08:50:16.470Z,4.00
2022-08-11T08:55:29.859Z,1.80
2022-08-11T08:58:00.732Z,2.80
2022-08-11T09:00:40.724Z,2.90
2022-08-11T09:03:36.673Z,5.30
2022-08-11T09:05:58.757Z,3.40
2022-08-11T09:08:27.561Z,2.20
2022-08-11T09:11:15.235Z,5.10
2022-08-11T09:13:45.462Z,3.30
2022-08-11T09:16:13.886Z,1.80
2022-08-11T09:18:44.735Z,2.00
2022-08-11T09:21:44.457Z,2.70
2022-08-11T09:24:26.850Z,2.50
2022-08-11T09:27:02.977Z,1.90
2022-08-11T09:29:31.997Z,1.60
2022-08-11T09:32:01.633Z,2.70
2022-08-11T09:34:30.297Z,2.10
2022-08-11T09:37:53.839Z,2.90
2022-08-11T09:40:33.876Z,3.90
2022-08-11T09:43:22.734Z,1.90
2022-08-11T09:45:53.653Z,2.20
2022-08-11T09:48:26.250Z,2.10
2022-08-11T09:50:56.432Z,1.70
2022-08-11T09:53:36.730Z,2.90
2022-08-11T09:56:31.571Z,3.20
2022-08-11T09:59:00.352Z,2.40
2022-08-11T10:01:31.443Z,2.30
2022-08-11T10:04:15.537Z,2.50
2022-08-11T10:07:04.650Z,2.30
2022-08-11T10:09:52.892Z,3.60
2022-08-11T10:12:42.724Z,3.20
2022-08-11T10:15:32.115Z,3.60
2022-08-11T10:18:28.432Z,2.30
2022-08-11T10:21:02.060Z,2.70
2022-08-11T10:24:01.146Z,2.70
2022-08-11T10:26:53.693Z,3.40
2022-08-11T10:29:59.680Z,3.20
2022-08-11T10:32:58.509Z,1.50
2022-08-11T10:35:30.804Z,3.30
2022-08-11T10:38:08.910Z,1.60
2022-08-11T10:40:40.164Z,2.30
2022-08-11T10:44:01.958Z,3.50
2022-08-11T10:46:30.145Z,1.40
2022-08-11T10:48:59.322Z,2.20
2022-08-11T10:51:50.928Z,3.10
2022-08-11T10:54:41.997Z,1.40
2022-08-11T10:57:30.329Z,3.40
2022-08-11T11:00:04.548Z,2.10
2022-08-11T11:02:34.004Z,3.70
2022-08-11T11:05:01.894Z,1.40
2022-08-11T11:07:47.578Z,3.10
2022-08-11T11:10:21.739Z,3.30
2022-08-11T11:13:14.526Z,1.20
2022-08-11T11:16:04.569Z,2.10
2022-08-11T11:19:00.928Z,5.20
2022-08-11T11:21:30.387Z,2.00
2022-08-11T11:24:17.224Z,1.60
2022-08-11T11:26:56.230Z,2.50
2022-08-11T11:29:56.151Z,2.10
2022-08-11T11:32:35.895Z,5.20
2022-08-11T11:35:16.100Z,1.10
2022-08-11T11:38:04.504Z,4.10
2022-08-11T11:40:34.279Z,1.30
2022-08-11T11:43:02.504Z,2.20
2022-08-11T11:45:30.757Z,2.50
2022-08-11T11:48:00.237Z,1.10
2022-08-11T11:50:33.102Z,1.90
2022-08-11T11:53:04.960Z,2.10
2022-08-11T11:55:33.869Z,1.60
2022-08-11T11:58:22.084Z,1.40
2022-08-11T12:01:10.147Z,1.30
2022-08-11T12:03:40.452Z,1.20
2022-08-11T12:06:09.702Z,2.70
2022-08-11T12:08:38.237Z,1.70
2022-08-11T12:11:28.850Z,1.70
2022-08-11T12:14:02.129Z,2.90
2022-08-11T12:16:34.410Z,2.80
2022-08-11T12:19:07.246Z,1.10
2022-08-11T12:24:29.209Z,1.10
2022-08-11T12:27:18.232Z,1.00
2022-08-11T12:29:55.313Z,1.50
2022-08-11T12:32:27.669Z,3.70
2022-08-11T12:34:57.323Z,3.70
2022-08-11T12:38:01.230Z,1.90
2022-08-11T12:41:15.094Z,3.20
2022-08-11T12:44:02.351Z,1.50
2022-08-11T12:46:37.635Z,2.40
2022-08-11T12:49:32.224Z,1.70
2022-08-11T12:52:12.785Z,1.50
2022-08-11T12:55:03.886Z,3.00
2022-08-11T12:57:53.239Z,2.80
2022-08-11T13:00:42.639Z,2.00
2022-08-11T13:03:31.142Z,1.80
2022-08-11T13:06:02.833Z,2.60
2022-08-11T13:08:35.418Z,1.60
2022-08-11T13:11:22.774Z,0.90
2022-08-11T13:13:57.916Z,1.20
2022-08-11T13:16:29.714Z,2.50
2022-08-11T13:19:00.959Z,2.70
2022-08-11T13:21:29.639Z,2.60
2022-08-11T13:24:01.179Z,4.00
2022-08-11T13:26:46.888Z,4.70
2022-08-11T13:29:19.936Z,1.90
2022-08-11T13:31:49.134Z,5.20
2022-08-11T13:34:18.098Z,1.20
2022-08-11T13:36:53.181Z,3.60
2022-08-11T13:39:25.174Z,1.60
2022-08-11T13:41:56.919Z,3.70
2022-08-11T13:44:28.992Z,2.20
2022-08-11T13:47:03.790Z,1.20
2022-08-11T13:49:36.647Z,1.20
2022-08-11T13:52:14.149Z,1.20
2022-08-11T13:54:43.049Z,3.90
2022-08-11T13:58:08.833Z,1.10
2022-08-11T14:00:20.898Z,2.10
2022-08-11T14:02:57.270Z,3.20
2022-08-11T14:05:28.703Z,1.50
2022-08-11T14:08:04.123Z,2.40
2022-08-11T14:10:34.569Z,1.30
2022-08-11T14:13:41.419Z,2.80
2022-08-11T14:16:18.721Z,2.50
2022-08-11T14:18:50.660Z,2.70
2022-08-11T14:21:39.751Z,2.10
2022-08-11T14:24:08.584Z,1.50
2022-08-11T14:26:39.244Z,1.30
2022-08-11T14:29:08.654Z,1.60
2022-08-11T14:31:44.625Z,1.20
2022-08-11T14:34:14.575Z,1.40
2022-08-11T14:36:45.535Z,2.00
2022-08-11T14:42:13.384Z,3.40
2022-08-11T14:45:03.224Z,2.60
2022-08-11T14:47:36.358Z,1.80
2022-08-11T14:50:11.239Z,2.60
2022-08-11T14:52:47.279Z,1.40
2022-08-11T14:55:34.967Z,1.00
2022-08-11T14:58:04.820Z,2.70
2022-08-11T15:00:34.492Z,1.70
2022-08-11T15:03:13.231Z,1.70
2022-08-11T15:06:02.373Z,2.50
2022-08-11T15:08:55.058Z,4.10
2022-08-11T15:11:45.273Z,2.00
2022-08-11T15:14:14.360Z,0.80
2022-08-11T15:17:04.486Z,2.10
2022-08-11T15:19:40.545Z,4.20
2022-08-11T15:22:29.426Z,1.70
2022-08-11T15:24:59.375Z,3.00
2022-08-11T15:27:47.710Z,1.40
2022-08-11T15:30:34.838Z,2.40
2022-08-11T15:33:26.233Z,3.60
2022-08-11T15:36:14.776Z,1.30
2022-08-11T15:38:55.411Z,3.70
2022-08-11T15:41:58.433Z,2.70
2022-08-11T15:45:06.512Z,5.20
2022-08-11T15:48:05.040Z,3.50
2022-08-11T15:50:40.536Z,3.80
2022-08-11T15:53:20.527Z,3.00
2022-08-11T15:55:49.078Z,2.50
2022-08-11T15:58:37.725Z,1.30
2022-08-11T16:01:25.068Z,2.50
2022-08-11T16:04:14.417Z,2.90
2022-08-11T16:06:49.696Z,3.20
2022-08-11T16:09:22.853Z,2.20
2022-08-11T16:11:51.963Z,3.20
2022-08-11T16:14:39.083Z,3.20
2022-08-11T16:17:08.421Z,1.70
2022-08-11T16:19:37.070Z,3.00
2022-08-11T16:22:08.840Z,7.90
2022-08-11T16:27:02.678Z,7.60
2022-08-11T16:27:41.239Z,1.30
2022-08-11T16:30:10.668Z,6.40
2022-08-11T16:32:43.128Z,1.30
2022-08-11T16:35:43.476Z,5.00
2022-08-11T16:38:35.880Z,4.00
2022-08-11T16:41:11.397Z,1.70
2022-08-11T16:44:04.583Z,2.40
2022-08-11T16:46:52.340Z,3.00
2022-08-11T16:49:29.421Z,3.30
2022-08-11T16:52:04.086Z,4.20
2022-08-11T16:54:35.648Z,2.90
2022-08-11T16:57:24.619Z,1.90
2022-08-11T16:59:57.910Z,2.70
2022-08-11T17:02:51.201Z,1.30
2022-08-11T17:05:54.135Z,1.60
2022-08-11T17:08:56.665Z,1.90
2022-08-11T17:11:50.290Z,2.00
2022-08-11T17:14:40.651Z,1.40
2022-08-11T17:17:30.663Z,2.50
2022-08-11T17:23:08.590Z,3.10
2022-08-11T17:25:59.287Z,3.40
2022-08-11T17:28:30.907Z,2.60
2022-08-11T17:31:21.872Z,4.40
2022-08-11T17:34:10.371Z,1.30
2022-08-11T17:36:45.126Z,3.80
2022-08-11T17:39:15.482Z,5.00
2022-08-11T17:42:02.905Z,3.60
2022-08-11T17:44:52.142Z,2.80
2022-08-11T17:47:38.885Z,2.90
2022-08-11T17:50:18.145Z,4.90
2022-08-11T17:53:06.096Z,6.70
2022-08-11T17:55:54.023Z,4.90
2022-08-11T17:58:42.512Z,10.30
2022-08-11T18:01:12.069Z,4.50
2022-08-11T18:03:53.106Z,7.50
2022-08-11T18:06:34.302Z,7.90
2022-08-11T18:09:31.114Z,4.20
2022-08-11T18:12:19.251Z,1.80
2022-08-11T18:15:11.093Z,3.90
2022-08-11T18:18:00.759Z,2.90
2022-08-11T18:20:48.568Z,2.90
2022-08-11T18:23:40.502Z,4.20
2022-08-11T18:26:37.059Z,2.20
2022-08-11T18:29:27.999Z,6.30
2022-08-11T18:32:21.931Z,6.00
2022-08-11T18:35:11.866Z,2.80
2022-08-11T18:38:06.802Z,1.30
2022-08-11T18:40:54.565Z,3.00
2022-08-11T18:43:45.913Z,2.90
2022-08-11T18:46:35.156Z,2.90
2022-08-11T18:50:01.465Z,3.40
2022-08-11T18:52:37.862Z,1.80
2022-08-11T18:55:29.651Z,3.30
2022-08-11T18:58:17.037Z,3.90
2022-08-11T19:01:05.312Z,3.70
2022-08-11T19:03:52.777Z,3.40
2022-08-11T19:06:42.315Z,2.60
2022-08-11T19:09:32.202Z,2.00
2022-08-11T19:12:22.623Z,3.30
2022-08-11T19:15:10.294Z,1.80
2022-08-11T19:18:01.778Z,4.00
2022-08-11T19:20:50.858Z,3.60
2022-08-11T19:23:52.536Z,4.40
2022-08-11T19:26:49.778Z,3.80
2022-08-11T19:30:04.907Z,5.60
2022-08-11T19:32:52.296Z,2.10
2022-08-11T19:35:40.083Z,1.60
2022-08-11T19:38:42.059Z,1.50
2022-08-11T19:41:56.381Z,4.50
2022-08-11T19:44:39.754Z,1.10
2022-08-11T19:47:27.714Z,1.40
2022-08-11T19:50:24.199Z,3.00
2022-08-11T19:53:18.910Z,4.10
2022-08-11T19:56:12.119Z,3.30
2022-08-11T19:59:00.145Z,2.60
2022-08-11T20:02:12.984Z,2.40
2022-08-11T20:04:58.198Z,2.20
2022-08-11T20:07:47.717Z,3.10
2022-08-11T20:10:39.664Z,3.40
2022-08-11T20:13:28.491Z,2.40
2022-08-11T20:16:16.644Z,6.10
2022-08-11T20:19:05.140Z,2.50
2022-08-11T20:21:53.515Z,4.20
2022-08-11T20:24:41.773Z,2.80
2022-08-11T20:27:29.033Z,2.20
2022-08-11T20:30:17.199Z,3.80
2022-08-11T20:33:05.505Z,2.60
2022-08-11T20:35:53.130Z,4.20
2022-08-11T20:38:42.306Z,3.80
2022-08-11T20:41:30.431Z,1.80
2022-08-11T20:44:19.655Z,2.40
2022-08-11T20:47:13.253Z,3.00
2022-08-11T20:50:03.133Z,2.40
2022-08-11T20:52:50.994Z,3.10
2022-08-11T20:55:51.519Z,2.50
2022-08-11T21:04:55.338Z,3.90
2022-08-11T21:07:55.178Z,2.50
2022-08-11T21:10:47.239Z,2.60
2022-08-11T21:13:39.734Z,4.10
2022-08-11T21:16:27.794Z,3.20
2022-08-11T21:19:56.373Z,2.10
2022-08-11T21:22:59.299Z,4.30
2022-08-11T21:25:59.298Z,5.00
2022-08-11T21:28:47.904Z,5.10
2022-08-11T21:31:34.780Z,3.10
2022-08-11T21:34:22.006Z,5.30
2022-08-11T21:37:10.846Z,2.70
2022-08-11T21:39:58.512Z,6.10
2022-08-11T21:42:46.587Z,2.50
2022-08-11T21:45:33.620Z,3.30
2022-08-11T21:48:20.914Z,2.40
2022-08-11T21:51:08.711Z,4.60
2022-08-11T21:53:55.774Z,3.50
2022-08-11T21:56:43.912Z,4.10
2022-08-11T21:59:32.141Z,4.30
2022-08-11T22:02:19.008Z,2.70
2022-08-11T22:05:08.440Z,7.10
2022-08-11T22:07:56.764Z,2.90
2022-08-11T22:10:43.782Z,2.40
2022-08-11T22:13:31.801Z,3.40
2022-08-11T22:16:18.333Z,2.10
2022-08-11T22:19:09.602Z,2.70
2022-08-11T22:22:03.975Z,2.10
2022-08-11T22:24:52.943Z,2.20
2022-08-11T22:27:41.042Z,2.80
2022-08-11T22:30:29.372Z,2.90
2022-08-11T22:33:17.412Z,2.20
2022-08-11T22:36:12.609Z,2.40
2022-08-11T22:39:00.639Z,3.60
2022-08-11T22:41:47.475Z,3.20
2022-08-11T22:44:34.466Z,5.40
2022-08-11T22:47:22.596Z,3.20
2022-08-11T22:50:16.717Z,2.60
2022-08-11T22:53:03.980Z,3.50
2022-08-11T22:55:50.628Z,4.50
2022-08-11T22:58:40.243Z,3.70
2022-08-11T23:01:27.318Z,2.40
2022-08-11T23:04:15.069Z,3.40
2022-08-11T23:07:02.626Z,3.30
2022-08-11T23:09:50.057Z,3.60
2022-08-11T23:12:37.207Z,4.20
2022-08-11T23:15:25.619Z,4.20
2022-08-11T23:18:12.812Z,3.10
2022-08-11T23:21:00.858Z,2.40
2022-08-11T23:23:49.679Z,4.00
2022-08-11T23:26:37.941Z,2.50
2022-08-11T23:29:27.076Z,3.80
2022-08-11T23:32:14.220Z,2.00
2022-08-11T23:35:38.374Z,2.40
2022-08-11T23:38:13.705Z,2.10
2022-08-11T23:41:00.455Z,2.20
2022-08-11T23:43:47.278Z,2.10
2022-08-11T23:46:34.275Z,3.50
2022-08-11T23:49:24.387Z,2.40
2022-08-11T23:52:11.505Z,3.80
2022-08-11T23:54:58.095Z,2.70
2022-08-11T23:57:48.808Z,2.00
